sensor_id;sensor_type;location;lat;lon;timestamp;temperature;humidity
31837;DHT22;18401;49.344;6.240;2023-05-27T00:02:01;12.30;99.90
31837;DHT22;18401;49.344;6.240;2023-05-27T00:04:27;12.20;99.90
31837;DHT22;18401;49.344;6.240;2023-05-27T00:06:52;12.10;99.90
31837;DHT22;18401;49.344;6.240;2023-05-27T00:09:18;12.00;99.90
31837;DHT22;18401;49.344;6.240;2023-05-27T00:11:44;11.70;99.90
31837;DHT22;18401;49.344;6.240;2023-05-27T00:14:09;11.50;99.90
31837;DHT22;18401;49.344;6.240;2023-05-27T00:16:35;11.20;99.90
31837;DHT22;18401;49.344;6.240;2023-05-27T00:19:02;11.10;99.90
31837;DHT22;18401;49.344;6.240;2023-05-27T00:21:28;10.90;99.90
31837;DHT22;18401;49.344;6.240;2023-05-27T00:23:53;10.70;99.90
31837;DHT22;18401;49.344;6.240;2023-05-27T00:26:19;10.70;99.90
31837;DHT22;18401;49.344;6.240;2023-05-27T00:28:44;10.60;99.90
31837;DHT22;18401;49.344;6.240;2023-05-27T00:31:10;10.40;99.90
31837;DHT22;18401;49.344;6.240;2023-05-27T00:33:35;10.40;99.90
31837;DHT22;18401;49.344;6.240;2023-05-27T00:36:01;10.30;99.90
31837;DHT22;18401;49.344;6.240;2023-05-27T00:38:26;10.30;99.90
31837;DHT22;18401;49.344;6.240;2023-05-27T00:40:52;10.30;99.90
31837;DHT22;18401;49.344;6.240;2023-05-27T00:43:18;10.10;99.90
31837;DHT22;18401;49.344;6.240;2023-05-27T00:45:43;10.00;99.90
31837;DHT22;18401;49.344;6.240;2023-05-27T00:48:09;9.90;99.90
31837;DHT22;18401;49.344;6.240;2023-05-27T00:50:35;9.70;99.90
31837;DHT22;18401;49.344;6.240;2023-05-27T00:53:00;9.60;99.90
31837;DHT22;18401;49.344;6.240;2023-05-27T00:55:26;9.60;99.90
31837;DHT22;18401;49.344;6.240;2023-05-27T00:57:52;9.50;99.90
31837;DHT22;18401;49.344;6.240;2023-05-27T01:00:21;9.50;99.90
31837;DHT22;18401;49.344;6.240;2023-05-27T01:02:46;9.40;99.90
31837;DHT22;18401;49.344;6.240;2023-05-27T01:05:12;9.40;99.90
31837;DHT22;18401;49.344;6.240;2023-05-27T01:14:57;9.40;99.90
31837;DHT22;18401;49.344;6.240;2023-05-27T01:17:23;9.40;99.90
31837;DHT22;18401;49.344;6.240;2023-05-27T01:19:51;9.50;99.90
31837;DHT22;18401;49.344;6.240;2023-05-27T01:22:17;9.40;99.90
31837;DHT22;18401;49.344;6.240;2023-05-27T01:24:44;9.50;99.90
31837;DHT22;18401;49.344;6.240;2023-05-27T01:27:10;9.50;99.90
31837;DHT22;18401;49.344;6.240;2023-05-27T01:29:40;9.60;99.90
31837;DHT22;18401;49.344;6.240;2023-05-27T01:32:27;9.50;99.90
31837;DHT22;18401;49.344;6.240;2023-05-27T01:34:59;9.50;99.90
31837;DHT22;18401;49.344;6.240;2023-05-27T01:37:29;9.60;99.90
31837;DHT22;18401;49.344;6.240;2023-05-27T01:39:55;9.60;99.90
31837;DHT22;18401;49.344;6.240;2023-05-27T01:42:21;9.50;99.90
31837;DHT22;18401;49.344;6.240;2023-05-27T01:44:47;9.30;99.90
31837;DHT22;18401;49.344;6.240;2023-05-27T01:47:13;9.30;99.90
31837;DHT22;18401;49.344;6.240;2023-05-27T01:49:40;9.20;99.90
31837;DHT22;18401;49.344;6.240;2023-05-27T01:52:06;9.20;99.90
31837;DHT22;18401;49.344;6.240;2023-05-27T01:54:31;9.20;99.90
31837;DHT22;18401;49.344;6.240;2023-05-27T01:56:57;9.30;99.90
31837;DHT22;18401;49.344;6.240;2023-05-27T01:59:22;9.30;99.90
31837;DHT22;18401;49.344;6.240;2023-05-27T02:01:48;9.20;99.90
31837;DHT22;18401;49.344;6.240;2023-05-27T02:04:13;9.10;99.90
31837;DHT22;18401;49.344;6.240;2023-05-27T02:06:39;9.10;99.90
31837;DHT22;18401;49.344;6.240;2023-05-27T02:09:05;9.00;99.90
31837;DHT22;18401;49.344;6.240;2023-05-27T02:11:31;9.10;99.90
31837;DHT22;18401;49.344;6.240;2023-05-27T02:13:57;9.20;99.90
31837;DHT22;18401;49.344;6.240;2023-05-27T02:16:24;9.20;99.90
31837;DHT22;18401;49.344;6.240;2023-05-27T02:18:50;9.30;99.90
31837;DHT22;18401;49.344;6.240;2023-05-27T02:21:16;9.20;99.90
31837;DHT22;18401;49.344;6.240;2023-05-27T02:23:41;9.00;99.90
31837;DHT22;18401;49.344;6.240;2023-05-27T02:26:07;8.80;99.90
31837;DHT22;18401;49.344;6.240;2023-05-27T02:28:32;8.60;99.90
31837;DHT22;18401;49.344;6.240;2023-05-27T02:30:59;8.60;99.90
31837;DHT22;18401;49.344;6.240;2023-05-27T02:33:25;8.50;99.90
31837;DHT22;18401;49.344;6.240;2023-05-27T02:35:50;8.60;99.90
31837;DHT22;18401;49.344;6.240;2023-05-27T02:38:16;8.70;99.90
31837;DHT22;18401;49.344;6.240;2023-05-27T02:40:41;8.50;99.90
31837;DHT22;18401;49.344;6.240;2023-05-27T02:43:07;8.50;99.90
31837;DHT22;18401;49.344;6.240;2023-05-27T02:45:33;8.50;99.90
31837;DHT22;18401;49.344;6.240;2023-05-27T02:47:59;8.60;99.90
31837;DHT22;18401;49.344;6.240;2023-05-27T02:50:28;8.60;99.90
31837;DHT22;18401;49.344;6.240;2023-05-27T02:52:53;8.60;99.90
31837;DHT22;18401;49.344;6.240;2023-05-27T02:55:19;8.50;99.90
31837;DHT22;18401;49.344;6.240;2023-05-27T02:57:44;8.50;99.90
31837;DHT22;18401;49.344;6.240;2023-05-27T03:00:11;8.50;99.90
31837;DHT22;18401;49.344;6.240;2023-05-27T03:02:36;8.40;99.90
31837;DHT22;18401;49.344;6.240;2023-05-27T03:05:02;8.40;99.90
31837;DHT22;18401;49.344;6.240;2023-05-27T03:07:28;8.30;99.90
31837;DHT22;18401;49.344;6.240;2023-05-27T03:09:57;8.20;99.90
31837;DHT22;18401;49.344;6.240;2023-05-27T03:12:22;8.10;99.90
31837;DHT22;18401;49.344;6.240;2023-05-27T03:14:48;8.00;99.90
31837;DHT22;18401;49.344;6.240;2023-05-27T03:17:14;8.00;99.90
31837;DHT22;18401;49.344;6.240;2023-05-27T03:19:39;7.90;99.90
31837;DHT22;18401;49.344;6.240;2023-05-27T03:22:05;7.90;99.90
31837;DHT22;18401;49.344;6.240;2023-05-27T03:24:32;7.90;99.90
31837;DHT22;18401;49.344;6.240;2023-05-27T03:26:57;7.90;99.90
31837;DHT22;18401;49.344;6.240;2023-05-27T03:29:23;7.90;99.90
31837;DHT22;18401;49.344;6.240;2023-05-27T03:31:48;7.90;99.90
31837;DHT22;18401;49.344;6.240;2023-05-27T03:34:14;8.10;99.90
31837;DHT22;18401;49.344;6.240;2023-05-27T03:36:39;8.20;99.90
31837;DHT22;18401;49.344;6.240;2023-05-27T03:39:05;8.20;99.90
31837;DHT22;18401;49.344;6.240;2023-05-27T03:41:31;8.30;99.90
31837;DHT22;18401;49.344;6.240;2023-05-27T03:43:56;8.30;99.90
31837;DHT22;18401;49.344;6.240;2023-05-27T03:46:22;8.20;99.90
31837;DHT22;18401;49.344;6.240;2023-05-27T03:48:47;8.20;99.90
31837;DHT22;18401;49.344;6.240;2023-05-27T03:51:13;8.20;99.90
31837;DHT22;18401;49.344;6.240;2023-05-27T03:53:39;8.20;99.90
31837;DHT22;18401;49.344;6.240;2023-05-27T03:56:05;8.20;99.90
31837;DHT22;18401;49.344;6.240;2023-05-27T03:58:31;8.20;99.90
31837;DHT22;18401;49.344;6.240;2023-05-27T04:00:56;8.20;99.90
31837;DHT22;18401;49.344;6.240;2023-05-27T04:03:22;8.40;99.90
31837;DHT22;18401;49.344;6.240;2023-05-27T04:05:47;8.50;99.90
31837;DHT22;18401;49.344;6.240;2023-05-27T04:08:13;8.60;99.90
31837;DHT22;18401;49.344;6.240;2023-05-27T04:10:38;8.70;99.90
31837;DHT22;18401;49.344;6.240;2023-05-27T04:13:04;8.80;99.90
31837;DHT22;18401;49.344;6.240;2023-05-27T04:15:30;9.00;99.90
31837;DHT22;18401;49.344;6.240;2023-05-27T04:17:55;9.10;99.90
31837;DHT22;18401;49.344;6.240;2023-05-27T04:20:21;9.20;99.90
31837;DHT22;18401;49.344;6.240;2023-05-27T04:22:47;9.20;99.90
31837;DHT22;18401;49.344;6.240;2023-05-27T04:25:12;9.30;99.90
31837;DHT22;18401;49.344;6.240;2023-05-27T04:27:38;9.30;99.90
31837;DHT22;18401;49.344;6.240;2023-05-27T04:30:04;9.40;99.90
31837;DHT22;18401;49.344;6.240;2023-05-27T04:32:30;9.40;99.90
31837;DHT22;18401;49.344;6.240;2023-05-27T04:35:05;9.40;99.90
31837;DHT22;18401;49.344;6.240;2023-05-27T04:37:34;9.50;99.90
31837;DHT22;18401;49.344;6.240;2023-05-27T04:40:02;9.50;99.90
31837;DHT22;18401;49.344;6.240;2023-05-27T04:42:28;9.70;99.90
31837;DHT22;18401;49.344;6.240;2023-05-27T04:44:54;9.80;99.90
31837;DHT22;18401;49.344;6.240;2023-05-27T04:47:20;10.00;99.90
31837;DHT22;18401;49.344;6.240;2023-05-27T04:49:46;10.10;99.90
31837;DHT22;18401;49.344;6.240;2023-05-27T04:52:12;10.20;99.90
31837;DHT22;18401;49.344;6.240;2023-05-27T04:54:38;10.30;99.90
31837;DHT22;18401;49.344;6.240;2023-05-27T04:57:03;10.40;99.90
31837;DHT22;18401;49.344;6.240;2023-05-27T04:59:29;10.40;99.90
31837;DHT22;18401;49.344;6.240;2023-05-27T05:02:12;10.50;99.90
31837;DHT22;18401;49.344;6.240;2023-05-27T05:04:46;10.60;99.90
31837;DHT22;18401;49.344;6.240;2023-05-27T05:07:12;10.70;99.90
31837;DHT22;18401;49.344;6.240;2023-05-27T05:09:37;10.80;99.90
31837;DHT22;18401;49.344;6.240;2023-05-27T05:12:03;10.80;99.90
31837;DHT22;18401;49.344;6.240;2023-05-27T05:14:30;10.80;99.90
31837;DHT22;18401;49.344;6.240;2023-05-27T05:16:55;11.00;99.90
31837;DHT22;18401;49.344;6.240;2023-05-27T05:19:21;11.10;99.90
31837;DHT22;18401;49.344;6.240;2023-05-27T05:21:46;11.10;99.90
31837;DHT22;18401;49.344;6.240;2023-05-27T05:24:12;11.20;99.90
31837;DHT22;18401;49.344;6.240;2023-05-27T05:26:37;11.30;99.90
31837;DHT22;18401;49.344;6.240;2023-05-27T05:29:03;11.40;99.90
31837;DHT22;18401;49.344;6.240;2023-05-27T05:31:28;11.50;99.90
31837;DHT22;18401;49.344;6.240;2023-05-27T05:33:54;11.50;99.90
31837;DHT22;18401;49.344;6.240;2023-05-27T05:36:20;11.70;99.90
31837;DHT22;18401;49.344;6.240;2023-05-27T05:38:46;11.80;99.90
31837;DHT22;18401;49.344;6.240;2023-05-27T05:41:12;11.90;99.90
31837;DHT22;18401;49.344;6.240;2023-05-27T05:43:38;12.00;99.90
31837;DHT22;18401;49.344;6.240;2023-05-27T05:46:03;12.00;99.90
31837;DHT22;18401;49.344;6.240;2023-05-27T05:48:29;12.00;99.90
31837;DHT22;18401;49.344;6.240;2023-05-27T05:50:54;12.10;99.90
31837;DHT22;18401;49.344;6.240;2023-05-27T05:53:20;12.20;99.90
31837;DHT22;18401;49.344;6.240;2023-05-27T05:55:46;12.30;99.90
31837;DHT22;18401;49.344;6.240;2023-05-27T05:58:11;12.30;99.90
31837;DHT22;18401;49.344;6.240;2023-05-27T06:00:37;12.50;99.90
31837;DHT22;18401;49.344;6.240;2023-05-27T06:03:02;12.60;99.90
31837;DHT22;18401;49.344;6.240;2023-05-27T06:05:28;12.70;99.90
31837;DHT22;18401;49.344;6.240;2023-05-27T06:07:53;12.90;99.90
31837;DHT22;18401;49.344;6.240;2023-05-27T06:10:19;12.90;99.90
31837;DHT22;18401;49.344;6.240;2023-05-27T06:12:45;13.00;99.90
31837;DHT22;18401;49.344;6.240;2023-05-27T06:15:11;13.10;99.90
31837;DHT22;18401;49.344;6.240;2023-05-27T06:17:37;13.10;99.90
31837;DHT22;18401;49.344;6.240;2023-05-27T06:20:03;13.20;99.90
31837;DHT22;18401;49.344;6.240;2023-05-27T06:22:28;13.30;99.90
31837;DHT22;18401;49.344;6.240;2023-05-27T06:24:54;13.30;99.90
31837;DHT22;18401;49.344;6.240;2023-05-27T06:27:20;13.60;99.90
31837;DHT22;18401;49.344;6.240;2023-05-27T06:29:45;13.60;99.90
31837;DHT22;18401;49.344;6.240;2023-05-27T06:32:11;13.60;99.90
31837;DHT22;18401;49.344;6.240;2023-05-27T06:34:37;13.80;99.90
31837;DHT22;18401;49.344;6.240;2023-05-27T06:37:02;13.90;99.90
31837;DHT22;18401;49.344;6.240;2023-05-27T06:39:28;14.10;99.90
31837;DHT22;18401;49.344;6.240;2023-05-27T06:41:53;14.20;99.90
31837;DHT22;18401;49.344;6.240;2023-05-27T06:44:19;14.30;99.90
31837;DHT22;18401;49.344;6.240;2023-05-27T06:46:44;14.20;99.90
31837;DHT22;18401;49.344;6.240;2023-05-27T06:49:10;14.40;99.90
31837;DHT22;18401;49.344;6.240;2023-05-27T06:51:36;14.60;99.90
31837;DHT22;18401;49.344;6.240;2023-05-27T06:54:02;14.70;99.90
31837;DHT22;18401;49.344;6.240;2023-05-27T06:56:27;14.80;99.90
31837;DHT22;18401;49.344;6.240;2023-05-27T06:58:53;15.00;99.90
31837;DHT22;18401;49.344;6.240;2023-05-27T07:01:18;15.00;99.90
31837;DHT22;18401;49.344;6.240;2023-05-27T07:03:44;15.10;99.90
31837;DHT22;18401;49.344;6.240;2023-05-27T07:06:10;15.30;99.90
31837;DHT22;18401;49.344;6.240;2023-05-27T07:08:35;15.40;99.90
31837;DHT22;18401;49.344;6.240;2023-05-27T07:11:01;15.50;99.90
31837;DHT22;18401;49.344;6.240;2023-05-27T07:13:27;15.50;99.90
31837;DHT22;18401;49.344;6.240;2023-05-27T07:15:52;15.50;99.90
31837;DHT22;18401;49.344;6.240;2023-05-27T07:18:18;15.80;99.90
31837;DHT22;18401;49.344;6.240;2023-05-27T07:20:43;16.00;99.90
31837;DHT22;18401;49.344;6.240;2023-05-27T07:23:09;16.20;99.90
31837;DHT22;18401;49.344;6.240;2023-05-27T07:25:34;16.40;99.90
31837;DHT22;18401;49.344;6.240;2023-05-27T07:28:00;16.50;99.90
31837;DHT22;18401;49.344;6.240;2023-05-27T07:30:26;16.50;99.90
31837;DHT22;18401;49.344;6.240;2023-05-27T07:32:52;16.70;99.90
31837;DHT22;18401;49.344;6.240;2023-05-27T07:35:18;16.80;99.90
31837;DHT22;18401;49.344;6.240;2023-05-27T07:37:43;16.90;99.90
31837;DHT22;18401;49.344;6.240;2023-05-27T07:40:09;17.20;98.70
31837;DHT22;18401;49.344;6.240;2023-05-27T07:42:35;17.30;94.50
31837;DHT22;18401;49.344;6.240;2023-05-27T07:45:02;17.30;89.60
31837;DHT22;18401;49.344;6.240;2023-05-27T07:47:28;17.30;90.60
31837;DHT22;18401;49.344;6.240;2023-05-27T07:49:53;17.40;90.50
31837;DHT22;18401;49.344;6.240;2023-05-27T07:52:19;17.50;90.90
31837;DHT22;18401;49.344;6.240;2023-05-27T07:54:44;17.60;89.30
31837;DHT22;18401;49.344;6.240;2023-05-27T07:57:10;17.80;80.40
31837;DHT22;18401;49.344;6.240;2023-05-27T07:59:35;17.80;82.20
31837;DHT22;18401;49.344;6.240;2023-05-27T08:02:01;17.80;77.30
31837;DHT22;18401;49.344;6.240;2023-05-27T08:04:28;17.90;79.30
31837;DHT22;18401;49.344;6.240;2023-05-27T08:06:53;18.30;94.60
31837;DHT22;18401;49.344;6.240;2023-05-27T08:09:19;18.30;56.90
31837;DHT22;18401;49.344;6.240;2023-05-27T08:11:44;18.50;42.40
31837;DHT22;18401;49.344;6.240;2023-05-27T08:14:10;18.70;37.00
31837;DHT22;18401;49.344;6.240;2023-05-27T08:16:38;19.00;53.30
31837;DHT22;18401;49.344;6.240;2023-05-27T08:19:03;19.30;33.00
31837;DHT22;18401;49.344;6.240;2023-05-27T08:21:29;19.30;18.00
31837;DHT22;18401;49.344;6.240;2023-05-27T08:23:54;19.40;5.30
31837;DHT22;18401;49.344;6.240;2023-05-27T08:26:20;19.20;11.10
31837;DHT22;18401;49.344;6.240;2023-05-27T08:28:45;19.50;17.20
31837;DHT22;18401;49.344;6.240;2023-05-27T08:31:11;19.70;15.80
31837;DHT22;18401;49.344;6.240;2023-05-27T08:33:37;19.60;3.90
31837;DHT22;18401;49.344;6.240;2023-05-27T08:36:02;19.70;1.00
31837;DHT22;18401;49.344;6.240;2023-05-27T08:38:28;19.70;1.00
31837;DHT22;18401;49.344;6.240;2023-05-27T08:40:53;19.70;1.00
31837;DHT22;18401;49.344;6.240;2023-05-27T08:43:19;19.70;1.00
31837;DHT22;18401;49.344;6.240;2023-05-27T08:45:47;19.70;1.00
31837;DHT22;18401;49.344;6.240;2023-05-27T08:48:13;19.80;15.20
31837;DHT22;18401;49.344;6.240;2023-05-27T08:50:40;20.00;1.30
31837;DHT22;18401;49.344;6.240;2023-05-27T08:53:05;20.20;8.00
31837;DHT22;18401;49.344;6.240;2023-05-27T08:55:32;20.30;1.00
31837;DHT22;18401;49.344;6.240;2023-05-27T08:57:58;20.30;1.00
31837;DHT22;18401;49.344;6.240;2023-05-27T09:00:24;20.40;1.00
31837;DHT22;18401;49.344;6.240;2023-05-27T09:02:50;20.60;1.00
31837;DHT22;18401;49.344;6.240;2023-05-27T09:05:16;20.50;1.00
31837;DHT22;18401;49.344;6.240;2023-05-27T09:07:42;20.50;1.00
31837;DHT22;18401;49.344;6.240;2023-05-27T09:10:08;20.70;1.00
31837;DHT22;18401;49.344;6.240;2023-05-27T09:12:34;20.70;8.00
31837;DHT22;18401;49.344;6.240;2023-05-27T09:15:02;20.60;1.00
31837;DHT22;18401;49.344;6.240;2023-05-27T09:17:27;20.50;1.00
31837;DHT22;18401;49.344;6.240;2023-05-27T09:19:53;20.50;1.00
31837;DHT22;18401;49.344;6.240;2023-05-27T09:24:45;21.20;10.40
31837;DHT22;18401;49.344;6.240;2023-05-27T09:27:10;21.30;1.00
31837;DHT22;18401;49.344;6.240;2023-05-27T09:29:37;21.60;5.30
31837;DHT22;18401;49.344;6.240;2023-05-27T09:32:07;21.70;1.00
31837;DHT22;18401;49.344;6.240;2023-05-27T09:34:39;21.90;10.60
31837;DHT22;18401;49.344;6.240;2023-05-27T09:37:05;21.90;1.00
31837;DHT22;18401;49.344;6.240;2023-05-27T09:39:32;21.80;1.00
31837;DHT22;18401;49.344;6.240;2023-05-27T09:42:00;21.90;1.00
31837;DHT22;18401;49.344;6.240;2023-05-27T09:44:27;22.00;1.00
31837;DHT22;18401;49.344;6.240;2023-05-27T09:46:53;22.40;1.00
31837;DHT22;18401;49.344;6.240;2023-05-27T09:49:20;22.60;1.00
31837;DHT22;18401;49.344;6.240;2023-05-27T09:51:46;22.70;1.00
31837;DHT22;18401;49.344;6.240;2023-05-27T09:54:12;23.00;1.00
31837;DHT22;18401;49.344;6.240;2023-05-27T09:56:42;23.10;1.00
31837;DHT22;18401;49.344;6.240;2023-05-27T09:59:08;23.10;1.00
31837;DHT22;18401;49.344;6.240;2023-05-27T10:01:33;23.10;1.00
31837;DHT22;18401;49.344;6.240;2023-05-27T10:04:00;23.20;1.00
31837;DHT22;18401;49.344;6.240;2023-05-27T10:06:27;23.30;1.00
31837;DHT22;18401;49.344;6.240;2023-05-27T10:08:55;23.70;1.00
31837;DHT22;18401;49.344;6.240;2023-05-27T10:11:26;23.60;1.00
31837;DHT22;18401;49.344;6.240;2023-05-27T10:13:52;23.80;99.90
31837;DHT22;18401;49.344;6.240;2023-05-27T10:16:18;23.80;99.90
31837;DHT22;18401;49.344;6.240;2023-05-27T10:18:45;24.00;99.90
31837;DHT22;18401;49.344;6.240;2023-05-27T10:21:17;24.10;99.90
31837;DHT22;18401;49.344;6.240;2023-05-27T10:23:52;24.30;99.90
31837;DHT22;18401;49.344;6.240;2023-05-27T10:26:17;24.40;99.90
31837;DHT22;18401;49.344;6.240;2023-05-27T10:28:43;25.00;99.90
31837;DHT22;18401;49.344;6.240;2023-05-27T10:31:09;25.30;99.90
31837;DHT22;18401;49.344;6.240;2023-05-27T10:33:36;25.60;99.90
31837;DHT22;18401;49.344;6.240;2023-05-27T10:36:08;26.00;99.90
31837;DHT22;18401;49.344;6.240;2023-05-27T10:38:35;26.30;99.90
31837;DHT22;18401;49.344;6.240;2023-05-27T10:41:01;26.30;99.90
31837;DHT22;18401;49.344;6.240;2023-05-27T10:43:27;26.50;99.90
31837;DHT22;18401;49.344;6.240;2023-05-27T10:46:00;26.60;99.90
31837;DHT22;18401;49.344;6.240;2023-05-27T10:48:27;26.90;99.90
31837;DHT22;18401;49.344;6.240;2023-05-27T10:50:57;26.90;99.90
31837;DHT22;18401;49.344;6.240;2023-05-27T10:53:23;27.20;99.90
31837;DHT22;18401;49.344;6.240;2023-05-27T10:55:50;27.40;99.90
31837;DHT22;18401;49.344;6.240;2023-05-27T10:58:17;27.10;99.90
31837;DHT22;18401;49.344;6.240;2023-05-27T11:00:43;27.40;99.90
31837;DHT22;18401;49.344;6.240;2023-05-27T11:03:15;27.00;99.90
31837;DHT22;18401;49.344;6.240;2023-05-27T11:05:41;27.10;99.90
31837;DHT22;18401;49.344;6.240;2023-05-27T11:08:11;27.00;99.90
31837;DHT22;18401;49.344;6.240;2023-05-27T11:10:36;26.50;99.90
31837;DHT22;18401;49.344;6.240;2023-05-27T11:13:02;26.40;99.90
31837;DHT22;18401;49.344;6.240;2023-05-27T11:15:27;26.70;99.90
31837;DHT22;18401;49.344;6.240;2023-05-27T11:17:53;27.40;99.90
31837;DHT22;18401;49.344;6.240;2023-05-27T11:20:18;27.50;99.90
31837;DHT22;18401;49.344;6.240;2023-05-27T11:22:49;28.00;99.90
31837;DHT22;18401;49.344;6.240;2023-05-27T11:25:14;27.80;99.90
31837;DHT22;18401;49.344;6.240;2023-05-27T11:27:40;27.30;99.90
31837;DHT22;18401;49.344;6.240;2023-05-27T11:32:35;27.10;99.90
31837;DHT22;18401;49.344;6.240;2023-05-27T11:35:01;26.70;99.90
31837;DHT22;18401;49.344;6.240;2023-05-27T11:37:30;26.70;99.90
31837;DHT22;18401;49.344;6.240;2023-05-27T11:39:56;27.50;99.90
31837;DHT22;18401;49.344;6.240;2023-05-27T11:42:22;27.90;99.90
31837;DHT22;18401;49.344;6.240;2023-05-27T11:44:51;27.70;99.90
31837;DHT22;18401;49.344;6.240;2023-05-27T11:47:17;27.80;99.90
31837;DHT22;18401;49.344;6.240;2023-05-27T11:49:43;27.80;99.90
31837;DHT22;18401;49.344;6.240;2023-05-27T11:52:10;27.50;99.90
31837;DHT22;18401;49.344;6.240;2023-05-27T11:54:37;27.30;99.90
31837;DHT22;18401;49.344;6.240;2023-05-27T11:57:03;27.50;99.90
31837;DHT22;18401;49.344;6.240;2023-05-27T11:59:33;27.40;99.90
31837;DHT22;18401;49.344;6.240;2023-05-27T12:01:58;27.50;99.90
31837;DHT22;18401;49.344;6.240;2023-05-27T12:04:24;27.60;99.90
31837;DHT22;18401;49.344;6.240;2023-05-27T12:06:49;27.90;99.90
31837;DHT22;18401;49.344;6.240;2023-05-27T12:09:16;28.40;99.90
31837;DHT22;18401;49.344;6.240;2023-05-27T12:11:41;28.70;99.90
31837;DHT22;18401;49.344;6.240;2023-05-27T12:14:07;28.30;99.90
31837;DHT22;18401;49.344;6.240;2023-05-27T12:16:33;28.30;99.90
31837;DHT22;18401;49.344;6.240;2023-05-27T12:18:58;28.30;99.90
31837;DHT22;18401;49.344;6.240;2023-05-27T12:21:24;27.70;99.90
31837;DHT22;18401;49.344;6.240;2023-05-27T12:23:50;27.60;99.90
31837;DHT22;18401;49.344;6.240;2023-05-27T12:26:16;27.70;99.90
31837;DHT22;18401;49.344;6.240;2023-05-27T12:28:42;28.30;99.90
31837;DHT22;18401;49.344;6.240;2023-05-27T12:31:07;28.00;99.90
31837;DHT22;18401;49.344;6.240;2023-05-27T12:33:33;27.60;99.90
31837;DHT22;18401;49.344;6.240;2023-05-27T12:35:59;27.50;99.90
31837;DHT22;18401;49.344;6.240;2023-05-27T12:38:25;27.80;99.90
31837;DHT22;18401;49.344;6.240;2023-05-27T12:40:51;27.90;99.90
31837;DHT22;18401;49.344;6.240;2023-05-27T12:43:17;27.90;99.90
31837;DHT22;18401;49.344;6.240;2023-05-27T12:45:43;27.70;99.90
31837;DHT22;18401;49.344;6.240;2023-05-27T12:48:08;27.60;99.90
31837;DHT22;18401;49.344;6.240;2023-05-27T12:50:35;27.60;99.90
31837;DHT22;18401;49.344;6.240;2023-05-27T12:53:01;27.60;99.90
31837;DHT22;18401;49.344;6.240;2023-05-27T12:55:27;27.90;99.90
31837;DHT22;18401;49.344;6.240;2023-05-27T12:57:52;28.20;99.90
31837;DHT22;18401;49.344;6.240;2023-05-27T13:00:19;28.20;99.90
31837;DHT22;18401;49.344;6.240;2023-05-27T13:02:45;27.80;99.90
31837;DHT22;18401;49.344;6.240;2023-05-27T13:05:12;27.80;99.90
31837;DHT22;18401;49.344;6.240;2023-05-27T13:07:38;28.00;99.90
31837;DHT22;18401;49.344;6.240;2023-05-27T13:10:05;28.50;99.90
31837;DHT22;18401;49.344;6.240;2023-05-27T13:12:31;28.20;99.90
31837;DHT22;18401;49.344;6.240;2023-05-27T13:14:57;28.00;99.90
31837;DHT22;18401;49.344;6.240;2023-05-27T13:17:23;28.50;99.90
31837;DHT22;18401;49.344;6.240;2023-05-27T13:19:49;28.80;99.90
31837;DHT22;18401;49.344;6.240;2023-05-27T13:22:14;28.70;99.90
31837;DHT22;18401;49.344;6.240;2023-05-27T13:24:40;28.80;99.90
31837;DHT22;18401;49.344;6.240;2023-05-27T13:27:08;29.00;99.90
31837;DHT22;18401;49.344;6.240;2023-05-27T13:29:34;29.00;99.90
31837;DHT22;18401;49.344;6.240;2023-05-27T13:32:01;29.10;99.90
31837;DHT22;18401;49.344;6.240;2023-05-27T13:34:26;28.10;99.90
31837;DHT22;18401;49.344;6.240;2023-05-27T13:36:53;28.10;99.90
31837;DHT22;18401;49.344;6.240;2023-05-27T13:39:19;28.50;99.90
31837;DHT22;18401;49.344;6.240;2023-05-27T13:41:44;27.90;99.90
31837;DHT22;18401;49.344;6.240;2023-05-27T13:44:10;27.70;99.90
31837;DHT22;18401;49.344;6.240;2023-05-27T13:46:36;27.90;99.90
31837;DHT22;18401;49.344;6.240;2023-05-27T13:49:01;28.10;99.90
31837;DHT22;18401;49.344;6.240;2023-05-27T13:51:29;28.50;99.90
31837;DHT22;18401;49.344;6.240;2023-05-27T13:53:54;28.70;99.90
31837;DHT22;18401;49.344;6.240;2023-05-27T13:56:20;28.40;99.90
31837;DHT22;18401;49.344;6.240;2023-05-27T13:58:48;28.70;99.90
31837;DHT22;18401;49.344;6.240;2023-05-27T14:01:14;28.90;99.90
31837;DHT22;18401;49.344;6.240;2023-05-27T14:03:40;29.10;99.90
31837;DHT22;18401;49.344;6.240;2023-05-27T14:06:06;29.40;99.90
31837;DHT22;18401;49.344;6.240;2023-05-27T14:08:32;29.00;99.90
31837;DHT22;18401;49.344;6.240;2023-05-27T14:10:58;28.60;99.90
31837;DHT22;18401;49.344;6.240;2023-05-27T14:13:23;28.70;99.90
31837;DHT22;18401;49.344;6.240;2023-05-27T14:15:50;28.60;99.90
31837;DHT22;18401;49.344;6.240;2023-05-27T14:18:15;28.50;99.90
31837;DHT22;18401;49.344;6.240;2023-05-27T14:20:42;28.40;99.90
31837;DHT22;18401;49.344;6.240;2023-05-27T14:23:07;28.10;99.90
31837;DHT22;18401;49.344;6.240;2023-05-27T14:25:36;28.20;99.90
31837;DHT22;18401;49.344;6.240;2023-05-27T14:28:02;28.40;99.90
31837;DHT22;18401;49.344;6.240;2023-05-27T14:30:29;28.60;99.90
31837;DHT22;18401;49.344;6.240;2023-05-27T14:32:56;28.70;99.90
31837;DHT22;18401;49.344;6.240;2023-05-27T14:35:27;28.50;99.90
31837;DHT22;18401;49.344;6.240;2023-05-27T14:37:52;28.50;99.90
31837;DHT22;18401;49.344;6.240;2023-05-27T14:40:18;28.40;99.90
31837;DHT22;18401;49.344;6.240;2023-05-27T14:42:43;28.20;99.90
31837;DHT22;18401;49.344;6.240;2023-05-27T14:45:09;28.10;99.90
31837;DHT22;18401;49.344;6.240;2023-05-27T14:47:35;28.40;99.90
31837;DHT22;18401;49.344;6.240;2023-05-27T14:50:01;28.20;99.90
31837;DHT22;18401;49.344;6.240;2023-05-27T14:52:27;28.60;99.90
31837;DHT22;18401;49.344;6.240;2023-05-27T14:54:52;28.60;99.90
31837;DHT22;18401;49.344;6.240;2023-05-27T14:57:18;28.30;99.90
31837;DHT22;18401;49.344;6.240;2023-05-27T14:59:44;28.30;99.90
31837;DHT22;18401;49.344;6.240;2023-05-27T15:02:09;28.40;99.90
31837;DHT22;18401;49.344;6.240;2023-05-27T15:04:35;28.40;99.90
31837;DHT22;18401;49.344;6.240;2023-05-27T15:07:01;28.00;99.90
31837;DHT22;18401;49.344;6.240;2023-05-27T15:09:26;27.60;99.90
31837;DHT22;18401;49.344;6.240;2023-05-27T15:11:52;27.20;99.90
31837;DHT22;18401;49.344;6.240;2023-05-27T15:14:18;27.40;99.90
31837;DHT22;18401;49.344;6.240;2023-05-27T15:16:43;27.60;99.90
31837;DHT22;18401;49.344;6.240;2023-05-27T15:19:09;27.70;99.90
31837;DHT22;18401;49.344;6.240;2023-05-27T15:21:34;27.50;99.90
31837;DHT22;18401;49.344;6.240;2023-05-27T15:24:01;27.40;99.90
31837;DHT22;18401;49.344;6.240;2023-05-27T15:26:26;27.30;99.90
31837;DHT22;18401;49.344;6.240;2023-05-27T15:28:52;27.60;99.90
31837;DHT22;18401;49.344;6.240;2023-05-27T15:31:18;27.80;99.90
31837;DHT22;18401;49.344;6.240;2023-05-27T15:33:45;27.50;99.90
31837;DHT22;18401;49.344;6.240;2023-05-27T15:36:11;27.70;99.90
31837;DHT22;18401;49.344;6.240;2023-05-27T15:38:37;27.70;99.90
31837;DHT22;18401;49.344;6.240;2023-05-27T15:41:02;27.60;99.90